createdAt,value
2017-07-24T00:00:29.401Z,0.80
2017-07-24T00:02:57.718Z,0.93
2017-07-24T00:05:25.214Z,0.80
2017-07-24T00:07:52.739Z,0.93
2017-07-24T00:10:20.246Z,0.87
2017-07-24T00:12:48.549Z,0.80
2017-07-24T00:15:17.160Z,0.80
2017-07-24T00:17:44.688Z,0.80
2017-07-24T00:20:12.210Z,0.90
2017-07-24T00:22:40.507Z,0.90
2017-07-24T00:25:08.798Z,1.00
2017-07-24T00:27:36.318Z,0.90
2017-07-24T00:30:03.825Z,0.90
2017-07-24T00:32:31.385Z,0.90
2017-07-24T00:34:58.893Z,0.87
2017-07-24T00:37:27.161Z,0.83
2017-07-24T00:39:54.705Z,1.00
2017-07-24T00:42:22.198Z,0.90
2017-07-24T00:44:50.458Z,0.97
2017-07-24T00:47:18.035Z,1.00
2017-07-24T00:49:46.329Z,0.90
2017-07-24T00:52:13.872Z,0.90
2017-07-24T00:54:42.121Z,0.70
2017-07-24T00:57:09.652Z,0.70
2017-07-24T00:59:37.141Z,0.90
2017-07-24T01:02:04.666Z,1.00
2017-07-24T01:04:32.191Z,0.87
2017-07-24T01:06:59.707Z,0.73
2017-07-24T01:09:27.263Z,1.00
2017-07-24T01:11:54.777Z,0.80
2017-07-24T01:14:22.329Z,0.80
2017-07-24T01:16:49.870Z,1.20
2017-07-24T01:19:18.137Z,0.67
2017-07-24T01:21:46.432Z,0.70
2017-07-24T01:24:13.966Z,1.00
2017-07-24T01:26:41.476Z,1.20
2017-07-24T01:29:08.969Z,0.80
2017-07-24T01:31:36.502Z,0.70
2017-07-24T01:34:04.038Z,1.23
2017-07-24T01:36:31.583Z,0.90
2017-07-24T01:38:59.081Z,0.70
2017-07-24T01:41:26.600Z,0.87
2017-07-24T01:43:54.121Z,0.97
2017-07-24T01:46:21.617Z,0.80
2017-07-24T01:48:49.113Z,0.80
2017-07-24T01:51:16.628Z,0.90
2017-07-24T01:53:44.137Z,0.70
2017-07-24T01:56:11.653Z,0.80
2017-07-24T01:58:39.149Z,0.80
2017-07-24T02:01:06.655Z,0.70
2017-07-24T02:03:34.166Z,0.90
2017-07-24T02:06:01.670Z,1.00
2017-07-24T02:08:29.180Z,0.60
2017-07-24T02:10:56.683Z,0.70
2017-07-24T02:13:24.973Z,0.63
2017-07-24T02:15:52.488Z,0.80
2017-07-24T02:18:19.993Z,0.80
2017-07-24T02:20:47.513Z,0.77
2017-07-24T02:23:15.014Z,0.70
2017-07-24T02:25:42.550Z,0.80
2017-07-24T02:28:10.827Z,1.00
2017-07-24T02:30:39.091Z,0.90
2017-07-24T02:33:07.382Z,0.90
2017-07-24T02:35:34.882Z,0.90
2017-07-24T02:38:02.374Z,0.77
2017-07-24T02:40:29.902Z,0.80
2017-07-24T02:42:57.403Z,0.80
2017-07-24T02:45:25.679Z,0.83
2017-07-24T02:47:53.949Z,0.70
2017-07-24T02:50:22.239Z,0.73
2017-07-24T02:52:50.513Z,0.80
2017-07-24T02:55:18.782Z,0.80
2017-07-24T02:57:47.049Z,0.77
2017-07-24T03:00:15.359Z,0.90
2017-07-24T03:02:42.870Z,0.80
2017-07-24T03:05:10.520Z,0.70
2017-07-24T03:07:38.053Z,0.63
2017-07-24T03:10:05.709Z,0.70
2017-07-24T03:12:33.227Z,0.70
2017-07-24T03:15:01.500Z,0.80
2017-07-24T03:17:29.809Z,0.60
2017-07-24T03:19:57.347Z,0.70
2017-07-24T03:22:25.597Z,0.80
2017-07-24T03:24:53.130Z,0.70
2017-07-24T03:27:20.643Z,0.60
2017-07-24T03:29:48.905Z,0.80
2017-07-24T03:32:17.206Z,0.73
2017-07-24T03:34:44.722Z,0.83
2017-07-24T03:37:12.324Z,0.80
2017-07-24T03:39:39.990Z,0.60
2017-07-24T03:42:07.502Z,0.63
2017-07-24T03:44:35.224Z,0.67
2017-07-24T03:47:02.725Z,1.20
2017-07-24T03:49:30.289Z,0.80
2017-07-24T03:51:58.594Z,0.60
2017-07-24T03:54:26.099Z,0.70
2017-07-24T03:56:53.621Z,0.63
2017-07-24T03:59:21.146Z,0.60
2017-07-24T04:01:49.401Z,0.90
2017-07-24T04:04:16.925Z,0.77
2017-07-24T04:06:44.529Z,0.70
2017-07-24T04:09:12.065Z,0.60
2017-07-24T04:11:39.634Z,0.80
2017-07-24T04:14:07.149Z,0.80
2017-07-24T04:16:34.662Z,0.67
2017-07-24T04:19:02.175Z,0.77
2017-07-24T04:21:29.693Z,0.80
2017-07-24T04:23:57.981Z,0.77
2017-07-24T04:26:25.492Z,0.67
2017-07-24T04:28:53.050Z,0.70
2017-07-24T04:31:20.534Z,0.60
2017-07-24T04:33:48.938Z,0.80
2017-07-24T04:36:16.451Z,0.80
2017-07-24T04:38:43.956Z,0.70
2017-07-24T04:41:11.491Z,0.60
2017-07-24T04:43:39.757Z,0.90
2017-07-24T04:46:07.281Z,0.70
2017-07-24T04:48:34.801Z,0.60
2017-07-24T04:51:02.334Z,0.60
2017-07-24T04:53:29.865Z,1.00
2017-07-24T04:55:57.370Z,0.70
2017-07-24T04:58:25.694Z,0.60
2017-07-24T05:00:53.222Z,0.67
2017-07-24T05:03:20.730Z,0.80
2017-07-24T05:05:48.249Z,0.70
2017-07-24T05:08:15.936Z,0.60
2017-07-24T05:10:43.425Z,0.87
2017-07-24T05:13:11.718Z,0.83
2017-07-24T05:15:39.218Z,0.70
2017-07-24T05:18:06.709Z,0.67
2017-07-24T05:20:34.322Z,0.70
2017-07-24T05:23:01.812Z,0.77
2017-07-24T05:25:29.406Z,0.63
2017-07-24T05:27:57.670Z,0.90
2017-07-24T05:30:25.967Z,0.63
2017-07-24T05:32:53.501Z,0.80
2017-07-24T05:35:21.785Z,0.70
2017-07-24T05:37:50.319Z,0.77
2017-07-24T05:40:17.841Z,1.00
2017-07-24T05:42:45.355Z,2.13
2017-07-24T05:45:12.892Z,3.50
2017-07-24T05:47:40.415Z,3.40
2017-07-24T05:50:08.683Z,3.73
2017-07-24T05:52:37.154Z,2.50
2017-07-24T05:55:05.462Z,2.33
2017-07-24T05:57:33.004Z,2.70
2017-07-24T06:00:00.537Z,3.20
2017-07-24T06:02:28.034Z,2.60
2017-07-24T06:04:55.536Z,2.50
2017-07-24T06:07:23.106Z,3.20
2017-07-24T06:09:50.606Z,1.97
2017-07-24T06:12:18.113Z,1.93
2017-07-24T06:14:46.258Z,1.40
2017-07-24T06:17:13.813Z,2.00
2017-07-24T06:19:41.340Z,1.57
2017-07-24T06:22:08.810Z,1.80
2017-07-24T06:24:36.461Z,1.80
2017-07-24T06:27:03.965Z,1.57
2017-07-24T06:29:31.486Z,1.63
2017-07-24T06:31:59.018Z,1.60
2017-07-24T06:34:27.277Z,1.40
2017-07-24T06:36:55.581Z,1.37
2017-07-24T06:39:23.058Z,1.20
2017-07-24T06:41:50.578Z,1.20
2017-07-24T06:44:18.101Z,1.27
2017-07-24T06:46:45.727Z,1.60
2017-07-24T06:49:13.255Z,1.60
2017-07-24T06:51:40.785Z,1.37
2017-07-24T06:54:08.297Z,1.20
2017-07-24T06:56:35.818Z,1.37
2017-07-24T06:59:03.342Z,1.57
2017-07-24T07:01:30.871Z,1.60
2017-07-24T07:03:59.126Z,1.13
2017-07-24T07:06:27.439Z,1.77
2017-07-24T07:08:55.087Z,1.20
2017-07-24T07:11:23.361Z,1.60
2017-07-24T07:13:50.889Z,1.20
2017-07-24T07:16:18.395Z,1.30
2017-07-24T07:18:45.922Z,1.23
2017-07-24T07:21:14.195Z,1.30
2017-07-24T07:23:42.463Z,1.50
2017-07-24T07:26:10.749Z,1.27
2017-07-24T07:28:39.102Z,1.30
2017-07-24T07:31:06.676Z,1.33
2017-07-24T07:33:34.214Z,1.37
2017-07-24T07:36:01.718Z,1.73
2017-07-24T07:38:29.225Z,1.20
2017-07-24T07:40:56.766Z,1.23
2017-07-24T07:43:24.281Z,0.97
2017-07-24T07:45:52.696Z,1.43
2017-07-24T07:48:20.302Z,1.30
2017-07-24T07:50:47.881Z,1.10
2017-07-24T07:53:16.149Z,1.60
2017-07-24T07:55:45.002Z,1.30
2017-07-24T07:58:12.574Z,1.20
2017-07-24T08:00:40.070Z,1.20
2017-07-24T08:03:08.350Z,1.20
2017-07-24T08:05:35.870Z,1.70
2017-07-24T08:08:03.387Z,1.20
2017-07-24T08:10:30.886Z,1.77
2017-07-24T08:12:58.399Z,1.17
2017-07-24T08:15:25.920Z,1.37
2017-07-24T08:17:54.207Z,1.20
2017-07-24T08:20:23.243Z,1.13
2017-07-24T08:22:50.762Z,1.17
2017-07-24T08:25:19.062Z,1.17
2017-07-24T08:27:46.591Z,1.83
2017-07-24T08:30:14.886Z,1.23
2017-07-24T08:32:42.440Z,1.33
2017-07-24T08:35:09.972Z,1.90
2017-07-24T08:37:37.494Z,1.87
2017-07-24T08:40:05.138Z,1.43
2017-07-24T08:42:32.725Z,1.80
2017-07-24T08:45:00.241Z,1.30
2017-07-24T08:47:27.752Z,1.23
2017-07-24T08:49:55.273Z,1.50
2017-07-24T08:52:22.928Z,1.60
2017-07-24T08:54:50.426Z,1.70
2017-07-24T08:57:17.942Z,1.57
2017-07-24T08:59:45.479Z,1.80
2017-07-24T09:02:13.731Z,1.60
2017-07-24T09:04:41.439Z,1.50
2017-07-24T09:07:08.961Z,1.80
2017-07-24T09:09:37.251Z,1.17
2017-07-24T09:12:05.602Z,1.53
2017-07-24T09:14:33.105Z,1.60
2017-07-24T09:17:00.631Z,1.40
2017-07-24T09:19:28.993Z,1.47
2017-07-24T09:21:56.673Z,1.73
2017-07-24T09:24:24.968Z,1.53
2017-07-24T09:26:52.666Z,1.67
2017-07-24T09:29:20.225Z,1.30
2017-07-24T09:31:47.743Z,1.30
2017-07-24T09:34:15.262Z,1.60
2017-07-24T09:36:42.834Z,1.20
2017-07-24T09:39:10.365Z,1.73
2017-07-24T09:41:37.907Z,1.30
2017-07-24T09:44:05.506Z,1.43
2017-07-24T09:46:33.169Z,1.50
2017-07-24T09:49:00.692Z,1.20
2017-07-24T09:51:28.198Z,1.40
2017-07-24T09:53:56.490Z,1.33
2017-07-24T09:56:24.753Z,1.03
2017-07-24T09:58:53.073Z,1.20
2017-07-24T10:01:20.593Z,2.07
2017-07-24T10:03:48.115Z,1.47
2017-07-24T10:06:15.645Z,1.50
2017-07-24T10:08:43.172Z,1.20
2017-07-24T10:11:11.422Z,1.17
2017-07-24T10:13:38.945Z,1.40
2017-07-24T10:16:06.458Z,1.60
2017-07-24T10:18:34.762Z,1.53
2017-07-24T10:21:02.256Z,1.37
2017-07-24T10:23:29.762Z,1.23
2017-07-24T10:25:57.276Z,1.90
2017-07-24T10:28:24.806Z,1.67
2017-07-24T10:30:52.303Z,1.77
2017-07-24T10:33:20.581Z,1.60
2017-07-24T10:35:48.110Z,1.30
2017-07-24T10:38:15.630Z,1.83
2017-07-24T10:40:43.161Z,1.33
2017-07-24T10:43:11.449Z,1.70
2017-07-24T10:45:39.718Z,1.90
2017-07-24T10:48:08.010Z,1.80
2017-07-24T10:50:35.526Z,1.63
2017-07-24T10:53:03.083Z,1.70
2017-07-24T10:55:30.824Z,1.87
2017-07-24T10:57:58.335Z,1.73
2017-07-24T11:00:26.806Z,1.63
2017-07-24T11:02:55.096Z,1.80
2017-07-24T11:05:23.375Z,1.47
2017-07-24T11:07:50.906Z,1.60
2017-07-24T11:10:18.406Z,1.80
2017-07-24T11:12:45.953Z,1.70
2017-07-24T11:15:14.044Z,2.00
2017-07-24T11:17:41.547Z,1.40
2017-07-24T11:20:09.095Z,1.57
2017-07-24T11:22:36.614Z,1.70
2017-07-24T11:25:04.114Z,1.67
2017-07-24T11:27:31.685Z,1.60
2017-07-24T11:29:59.982Z,1.80
2017-07-24T11:32:28.293Z,1.10
2017-07-24T11:34:55.813Z,1.23
2017-07-24T11:37:24.129Z,1.70
2017-07-24T11:39:51.623Z,1.50
2017-07-24T11:42:19.147Z,1.20
2017-07-24T11:44:46.687Z,1.40
2017-07-24T11:47:14.206Z,1.47
2017-07-24T11:49:41.718Z,1.60
2017-07-24T11:52:09.263Z,1.30
2017-07-24T11:54:36.791Z,1.40
2017-07-24T11:57:05.076Z,1.20
2017-07-24T11:59:33.327Z,1.40
2017-07-24T12:02:00.897Z,1.30
2017-07-24T12:04:28.452Z,1.77
2017-07-24T12:06:55.984Z,1.33
2017-07-24T12:09:33.458Z,1.37
2017-07-24T12:12:00.987Z,1.30
2017-07-24T12:14:29.308Z,1.30
2017-07-24T12:16:56.813Z,1.30
2017-07-24T12:19:25.096Z,1.53
2017-07-24T12:21:52.643Z,1.20
2017-07-24T12:24:20.916Z,1.40
2017-07-24T12:26:49.328Z,1.10
2017-07-24T12:29:16.838Z,1.20
2017-07-24T12:31:44.390Z,1.70
2017-07-24T12:34:12.078Z,1.47
2017-07-24T12:36:40.357Z,1.40
2017-07-24T12:39:08.614Z,1.27
2017-07-24T12:41:36.134Z,1.00
2017-07-24T12:44:03.651Z,1.20
2017-07-24T12:46:31.968Z,1.27
2017-07-24T12:48:59.699Z,1.13
2017-07-24T12:51:27.981Z,1.30
2017-07-24T12:53:55.570Z,1.27
2017-07-24T12:56:23.915Z,1.00
2017-07-24T12:58:51.435Z,1.40
2017-07-24T13:01:19.151Z,1.10
2017-07-24T13:03:46.696Z,1.20
2017-07-24T13:06:14.215Z,1.23
2017-07-24T13:08:41.739Z,1.50
2017-07-24T13:11:09.233Z,1.70
2017-07-24T13:13:36.780Z,1.20
2017-07-24T13:16:04.303Z,1.23
2017-07-24T13:18:31.809Z,1.27
2017-07-24T13:20:59.354Z,1.30
2017-07-24T13:23:26.886Z,1.20
2017-07-24T13:25:54.436Z,1.37
2017-07-24T13:28:21.954Z,1.13
2017-07-24T13:30:50.250Z,1.20
2017-07-24T13:33:17.795Z,1.13
2017-07-24T13:35:46.176Z,1.13
2017-07-24T13:38:14.431Z,1.30
2017-07-24T13:40:41.988Z,1.30
2017-07-24T13:43:09.539Z,1.50
2017-07-24T13:45:37.042Z,1.07
2017-07-24T13:48:04.562Z,1.07
2017-07-24T13:50:32.146Z,1.03
2017-07-24T13:53:00.481Z,1.23
2017-07-24T13:55:27.968Z,1.17
2017-07-24T13:57:56.252Z,1.23
2017-07-24T14:00:24.538Z,1.23
2017-07-24T14:02:52.823Z,1.50
2017-07-24T14:05:20.374Z,1.13
2017-07-24T14:07:48.714Z,1.10
2017-07-24T14:10:16.222Z,1.13
2017-07-24T14:12:43.769Z,1.67
2017-07-24T14:15:11.271Z,1.20
2017-07-24T14:17:38.816Z,1.00
2017-07-24T14:20:06.371Z,1.23
2017-07-24T14:22:33.870Z,1.30
2017-07-24T14:25:01.393Z,1.40
2017-07-24T14:27:28.945Z,1.00
2017-07-24T14:29:56.473Z,1.40
2017-07-24T14:32:24.736Z,1.10
2017-07-24T14:34:53.104Z,0.90
2017-07-24T14:37:20.615Z,0.93
2017-07-24T14:39:48.163Z,1.00
2017-07-24T14:42:15.679Z,1.03
2017-07-24T14:44:43.288Z,0.80
2017-07-24T14:47:10.811Z,1.20
2017-07-24T14:49:39.091Z,1.20
2017-07-24T14:52:07.350Z,1.00
2017-07-24T14:54:34.868Z,0.80
2017-07-24T14:57:02.404Z,1.40
2017-07-24T14:59:29.972Z,1.00
2017-07-24T15:01:57.487Z,1.10
2017-07-24T15:04:25.018Z,1.10
2017-07-24T15:06:52.504Z,1.07
2017-07-24T15:09:20.033Z,1.03
2017-07-24T15:11:47.599Z,1.23
2017-07-24T15:14:15.096Z,0.90
2017-07-24T15:16:43.414Z,1.13
2017-07-24T15:19:10.926Z,1.03
2017-07-24T15:21:39.259Z,1.17
2017-07-24T15:24:06.816Z,1.00
2017-07-24T15:26:34.474Z,1.10
2017-07-24T15:29:02.036Z,0.90
2017-07-24T15:31:29.569Z,1.20
2017-07-24T15:33:57.106Z,1.07
2017-07-24T15:36:25.473Z,1.00
2017-07-24T15:38:53.751Z,1.20
2017-07-24T15:41:22.023Z,1.63
2017-07-24T15:43:49.559Z,1.30
2017-07-24T15:46:17.085Z,1.03
2017-07-24T15:48:44.590Z,1.20
2017-07-24T15:51:12.891Z,1.20
2017-07-24T15:53:40.470Z,1.30
2017-07-24T15:56:07.974Z,0.93
2017-07-24T15:58:35.608Z,1.13
2017-07-24T16:01:03.159Z,1.27
2017-07-24T16:03:30.766Z,1.50
2017-07-24T16:05:58.304Z,1.07
2017-07-24T16:08:25.853Z,1.30
2017-07-24T16:10:53.364Z,1.03
2017-07-24T16:13:21.803Z,1.00
2017-07-24T16:15:49.331Z,1.10
2017-07-24T16:18:16.850Z,1.10
2017-07-24T16:20:45.148Z,1.10
2017-07-24T16:23:12.656Z,0.97
2017-07-24T16:25:40.190Z,1.07
2017-07-24T16:28:07.759Z,0.80
2017-07-24T16:30:35.315Z,1.73
2017-07-24T16:33:02.880Z,1.30
2017-07-24T16:35:30.399Z,0.97
2017-07-24T16:40:31.954Z,1.17
2017-07-24T16:42:59.471Z,1.00
2017-07-24T16:45:27.021Z,1.10
2017-07-24T16:47:54.550Z,1.47
2017-07-24T16:50:22.076Z,1.00
2017-07-24T16:52:50.406Z,1.20
2017-07-24T16:55:17.911Z,0.93
2017-07-24T16:57:46.249Z,1.10
2017-07-24T17:00:13.814Z,1.20
2017-07-24T17:02:41.335Z,1.13
2017-07-24T17:05:08.836Z,0.97
2017-07-24T17:07:36.496Z,1.10
2017-07-24T17:10:04.051Z,1.30
2017-07-24T17:12:31.544Z,0.93
2017-07-24T17:14:59.820Z,1.10
2017-07-24T17:17:27.382Z,1.00
2017-07-24T17:19:54.914Z,1.57
2017-07-24T17:22:23.219Z,1.00
2017-07-24T17:24:50.939Z,1.00
2017-07-24T17:27:19.136Z,1.20
2017-07-24T17:29:47.388Z,1.40
2017-07-24T17:32:14.913Z,1.13
2017-07-24T17:34:42.506Z,1.00
2017-07-24T17:37:10.027Z,0.80
2017-07-24T17:39:37.573Z,1.03
2017-07-24T17:42:05.092Z,1.00
2017-07-24T17:44:32.749Z,1.33
2017-07-24T17:47:00.271Z,1.33
2017-07-24T17:49:27.836Z,1.30
2017-07-24T17:51:55.388Z,1.00
2017-07-24T17:54:22.901Z,1.50
2017-07-24T17:56:50.409Z,1.20
2017-07-24T17:59:17.947Z,1.40
2017-07-24T18:01:45.469Z,1.50
2017-07-24T18:04:13.013Z,1.43
2017-07-24T18:06:40.595Z,1.00
2017-07-24T18:09:08.981Z,1.70
2017-07-24T18:11:37.297Z,1.30
2017-07-24T18:14:04.907Z,1.30
2017-07-24T18:16:32.436Z,1.10
2017-07-24T18:19:00.018Z,1.23
2017-07-24T18:21:27.559Z,2.40
2017-07-24T18:23:55.157Z,1.17
2017-07-24T18:26:23.486Z,1.33
2017-07-24T18:28:50.992Z,1.30
2017-07-24T18:31:18.611Z,1.30
2017-07-24T18:33:46.126Z,1.40
2017-07-24T18:36:13.667Z,1.30
2017-07-24T18:38:41.966Z,1.60
2017-07-24T18:41:09.495Z,1.23
2017-07-24T18:43:37.796Z,1.60
2017-07-24T18:46:05.364Z,1.73
2017-07-24T18:48:32.918Z,1.60
2017-07-24T18:51:00.473Z,1.30
2017-07-24T18:53:28.147Z,1.50
2017-07-24T18:55:55.684Z,1.90
2017-07-24T18:58:23.338Z,1.60
2017-07-24T19:00:51.625Z,1.40
2017-07-24T19:03:19.151Z,1.50
2017-07-24T19:05:46.819Z,1.80
2017-07-24T19:08:14.357Z,1.90
2017-07-24T19:10:41.900Z,1.48
2017-07-24T19:13:09.463Z,1.57
2017-07-24T19:15:36.983Z,1.70
2017-07-24T19:18:04.586Z,1.43
2017-07-24T19:20:32.160Z,1.87
2017-07-24T19:22:59.853Z,1.50
2017-07-24T19:25:27.489Z,1.47
2017-07-24T19:27:55.065Z,1.70
2017-07-24T19:30:23.583Z,1.63
2017-07-24T19:32:51.172Z,1.70
2017-07-24T19:35:18.843Z,1.27
2017-07-24T19:37:46.463Z,1.70
2017-07-24T19:40:14.103Z,1.60
2017-07-24T19:42:42.484Z,1.70
2017-07-24T19:45:10.074Z,1.20
2017-07-24T19:47:37.683Z,1.83
2017-07-24T19:50:06.010Z,1.20
2017-07-24T19:52:33.517Z,1.43
2017-07-24T19:55:01.039Z,1.37
2017-07-24T19:57:28.563Z,1.70
2017-07-24T19:59:56.138Z,1.30
2017-07-24T20:02:23.710Z,1.70
2017-07-24T20:04:51.285Z,1.60
2017-07-24T20:07:18.808Z,1.40
2017-07-24T20:09:46.366Z,1.60
2017-07-24T20:12:13.895Z,1.13
2017-07-24T20:14:42.613Z,1.23
2017-07-24T20:17:10.095Z,1.47
2017-07-24T20:19:37.787Z,1.33
2017-07-24T20:22:05.321Z,1.40
2017-07-24T20:24:32.926Z,1.80
2017-07-24T20:27:00.541Z,1.10
2017-07-24T20:29:28.082Z,1.30
2017-07-24T20:31:55.590Z,1.23
2017-07-24T20:34:23.951Z,1.20
2017-07-24T20:36:51.497Z,1.50
2017-07-24T20:39:19.036Z,1.23
2017-07-24T20:41:46.572Z,1.20
2017-07-24T20:44:14.078Z,1.60
2017-07-24T20:46:41.749Z,1.73
2017-07-24T20:49:09.275Z,1.30
2017-07-24T20:51:36.818Z,1.60
2017-07-24T20:54:04.375Z,1.20
2017-07-24T20:56:31.895Z,1.50
2017-07-24T20:59:00.231Z,1.47
2017-07-24T21:01:27.769Z,1.13
2017-07-24T21:03:55.266Z,1.23
2017-07-24T21:06:23.787Z,1.20
2017-07-24T21:08:51.316Z,1.00
2017-07-24T21:11:19.606Z,1.07
2017-07-24T21:13:47.250Z,1.30
2017-07-24T21:16:15.558Z,1.30
2017-07-24T21:18:43.088Z,1.30
2017-07-24T21:21:11.381Z,1.10
2017-07-24T21:23:38.947Z,1.13
2017-07-24T21:26:06.464Z,1.30
2017-07-24T21:28:33.969Z,1.20
2017-07-24T21:31:01.511Z,0.90
2017-07-24T21:33:29.061Z,1.30
2017-07-24T21:35:56.632Z,1.47
2017-07-24T21:38:24.163Z,1.13
2017-07-24T21:40:51.661Z,1.47
2017-07-24T21:43:19.213Z,1.40
2017-07-24T21:45:46.747Z,1.13
2017-07-24T21:48:15.014Z,1.10
2017-07-24T21:50:43.283Z,1.20
2017-07-24T21:53:11.617Z,1.10
2017-07-24T21:55:39.334Z,1.20
2017-07-24T21:58:07.630Z,1.53
2017-07-24T22:00:35.181Z,1.10
2017-07-24T22:03:03.452Z,1.30
2017-07-24T22:05:31.678Z,1.10
2017-07-24T22:07:59.209Z,1.23
2017-07-24T22:10:26.723Z,1.13
2017-07-24T22:12:54.293Z,1.10
2017-07-24T22:15:22.585Z,0.90
2017-07-24T22:17:50.101Z,1.20
2017-07-24T22:20:17.627Z,1.07
2017-07-24T22:22:45.179Z,1.30
2017-07-24T22:25:12.689Z,1.07
2017-07-24T22:27:40.190Z,1.20
2017-07-24T22:30:07.756Z,1.03
2017-07-24T22:32:35.299Z,1.27
2017-07-24T22:35:03.554Z,1.10
2017-07-24T22:37:31.834Z,1.00
2017-07-24T22:40:00.106Z,1.10
2017-07-24T22:42:28.401Z,1.00
2017-07-24T22:44:55.944Z,1.13
2017-07-24T22:47:24.291Z,1.00
2017-07-24T22:49:51.819Z,1.07
2017-07-24T22:52:19.349Z,1.10
2017-07-24T22:54:47.681Z,0.97
2017-07-24T22:57:15.193Z,1.00
2017-07-24T22:59:42.848Z,1.30
2017-07-24T23:02:10.363Z,1.10
2017-07-24T23:04:37.878Z,1.00
2017-07-24T23:07:05.390Z,1.20
2017-07-24T23:09:33.097Z,0.97
2017-07-24T23:12:00.597Z,0.90
2017-07-24T23:14:28.160Z,1.40
2017-07-24T23:16:55.699Z,0.77
2017-07-24T23:19:23.194Z,1.20
2017-07-24T23:21:51.644Z,1.10
2017-07-24T23:24:19.142Z,1.27
2017-07-24T23:26:47.466Z,1.10
2017-07-24T23:29:14.962Z,1.10
2017-07-24T23:31:43.229Z,1.00
2017-07-24T23:34:10.779Z,1.23
2017-07-24T23:36:38.324Z,0.90
2017-07-24T23:39:05.855Z,1.03
2017-07-24T23:41:33.351Z,1.13
2017-07-24T23:44:01.474Z,1.33
2017-07-24T23:46:28.972Z,0.90
2017-07-24T23:48:56.501Z,1.23
2017-07-24T23:51:24.121Z,1.13
2017-07-24T23:53:51.630Z,1.20
2017-07-24T23:56:19.322Z,1.00
2017-07-24T23:58:46.909Z,0.80
